White Mountain, California
Current Conditions -  °F | °C
As of 12:56 AM on Wednesday 28 Jan 2015 (Local Time) from KBIH Reporting Station
Overcast Overcast  
Wind Chill: 39°   Ceiling: 7000
Heat Index: 43°   Visibility: 10mi
Dew Point: 40°   Wind: 6mph
Humidity: 89%   Direction: 360°N
Pressure: 30.26"   Gusts: NA
Location:  37.5°N, 118.18°W
Report Text: KBIH 280856Z AUTO 36005KT 10SM OVC070 06/04 A3026 RMK AO2 SLP230 60004 T00610044 58002
Loading
Personal Weather Stations






























Interactive Weather Map New forecast layout! Learn more

10-Day Weather Forecast

Advertisements
Track Severe Weather on mobile